createdAt,value
2019-03-18T00:00:32.066Z,59.15
2019-03-18T00:03:00.769Z,59.01
2019-03-18T00:05:29.190Z,59.78
2019-03-18T00:07:57.525Z,58.12
2019-03-18T00:10:25.894Z,60.03
2019-03-18T00:12:54.131Z,57.00
2019-03-18T00:15:22.492Z,58.11
2019-03-18T00:17:50.833Z,58.64
2019-03-18T00:20:19.098Z,59.26
2019-03-18T00:22:50.121Z,58.16
2019-03-18T00:25:18.461Z,57.85
2019-03-18T00:27:48.424Z,57.25
2019-03-18T00:30:17.845Z,58.55
2019-03-18T00:32:47.017Z,59.63
2019-03-18T00:35:15.232Z,58.54
2019-03-18T00:37:43.593Z,56.31
2019-03-18T00:40:36.698Z,58.88
2019-03-18T00:43:05.693Z,59.21
2019-03-18T00:45:33.969Z,58.34
2019-03-18T00:48:02.249Z,56.91
2019-03-18T00:50:30.520Z,58.69
2019-03-18T00:52:58.764Z,58.92
2019-03-18T00:55:27.077Z,58.89
2019-03-18T00:57:55.415Z,56.50
2019-03-18T01:00:23.692Z,57.05
2019-03-18T01:02:51.987Z,58.81
2019-03-18T01:05:20.350Z,58.29
2019-03-18T01:07:48.605Z,58.49
2019-03-18T01:10:17.831Z,60.11
2019-03-18T01:12:46.295Z,57.31
2019-03-18T01:15:26.876Z,58.52
2019-03-18T01:17:44.614Z,57.58
2019-03-18T01:20:13.838Z,59.47
2019-03-18T01:22:42.111Z,59.48
2019-03-18T01:25:11.026Z,58.33
2019-03-18T01:27:39.282Z,57.83
2019-03-18T01:30:09.788Z,57.54
2019-03-18T01:32:38.104Z,60.37
2019-03-18T01:35:09.156Z,57.22
2019-03-18T01:37:37.438Z,57.17
2019-03-18T01:40:10.684Z,59.38
2019-03-18T01:42:38.966Z,56.12
2019-03-18T01:45:07.873Z,56.78
2019-03-18T01:47:36.273Z,56.28
2019-03-18T01:50:06.732Z,56.58
2019-03-18T01:52:34.992Z,56.45
2019-03-18T01:55:04.219Z,57.59
2019-03-18T01:57:32.478Z,59.17
2019-03-18T02:00:01.041Z,58.20
2019-03-18T02:02:29.274Z,59.08
2019-03-18T02:04:57.613Z,59.13
2019-03-18T02:07:25.888Z,59.17
2019-03-18T02:09:54.149Z,59.94
2019-03-18T02:12:22.438Z,58.75
2019-03-18T02:14:50.674Z,60.03
2019-03-18T02:17:18.963Z,58.97
2019-03-18T02:19:47.216Z,59.47
2019-03-18T02:22:15.500Z,61.75
2019-03-18T02:24:43.756Z,62.57
2019-03-18T02:27:12.085Z,61.69
2019-03-18T02:29:40.351Z,60.67
2019-03-18T02:32:08.613Z,61.14
2019-03-18T02:34:36.865Z,60.30
2019-03-18T02:37:05.155Z,59.11
2019-03-18T02:39:33.395Z,59.92
2019-03-18T02:42:01.735Z,58.18
2019-03-18T02:44:30.000Z,60.38
2019-03-18T02:46:58.330Z,59.57
2019-03-18T02:49:26.579Z,58.84
2019-03-18T02:51:54.843Z,56.86
2019-03-18T02:54:23.118Z,60.41
2019-03-18T02:56:51.375Z,59.66
2019-03-18T02:59:19.624Z,58.84
2019-03-18T03:01:47.901Z,56.92
2019-03-18T03:04:16.146Z,57.79
2019-03-18T03:06:44.399Z,55.92
2019-03-18T03:09:12.663Z,55.80
2019-03-18T03:11:40.930Z,57.95
2019-03-18T03:14:09.185Z,56.01
2019-03-18T03:16:37.455Z,58.74
2019-03-18T03:19:05.735Z,57.84
2019-03-18T03:21:34.034Z,57.28
2019-03-18T03:24:02.297Z,59.17
2019-03-18T03:26:30.544Z,58.00
2019-03-18T03:28:58.801Z,58.44
2019-03-18T03:31:27.076Z,57.74
2019-03-18T03:33:55.337Z,58.52
2019-03-18T03:36:23.604Z,61.19
2019-03-18T03:38:51.874Z,61.54
2019-03-18T03:41:20.196Z,60.96
2019-03-18T03:43:48.397Z,60.30
2019-03-18T03:46:16.649Z,59.50
2019-03-18T03:48:44.926Z,59.64
2019-03-18T03:51:13.180Z,59.19
2019-03-18T03:53:41.516Z,58.91
2019-03-18T03:56:09.936Z,59.13
2019-03-18T03:58:38.269Z,60.00
2019-03-18T04:01:06.538Z,57.71
2019-03-18T04:03:38.774Z,58.88
2019-03-18T04:06:04.891Z,58.30
2019-03-18T04:08:33.418Z,57.68
2019-03-18T04:11:01.706Z,60.77
2019-03-18T04:13:29.977Z,56.99
2019-03-18T04:15:58.264Z,59.45
2019-03-18T04:18:26.529Z,60.84
2019-03-18T04:20:54.804Z,59.48
2019-03-18T04:23:23.062Z,58.53
2019-03-18T04:25:51.493Z,58.94
2019-03-18T04:28:19.764Z,58.60
2019-03-18T04:30:48.049Z,58.09
2019-03-18T04:33:16.329Z,61.14
2019-03-18T04:35:44.566Z,58.65
2019-03-18T04:38:12.844Z,59.57
2019-03-18T04:40:41.110Z,57.37
2019-03-18T04:43:09.358Z,60.90
2019-03-18T04:45:37.627Z,62.13
2019-03-18T04:48:05.891Z,58.46
2019-03-18T04:50:34.170Z,61.65
2019-03-18T04:53:02.439Z,56.87
2019-03-18T04:55:30.712Z,59.98
2019-03-18T04:57:58.995Z,60.63
2019-03-18T05:00:27.239Z,59.67
2019-03-18T05:02:55.493Z,59.04
2019-03-18T05:05:23.830Z,59.96
2019-03-18T05:07:52.016Z,59.19
2019-03-18T05:10:20.294Z,59.45
2019-03-18T05:12:48.584Z,56.42
2019-03-18T05:15:16.875Z,58.63
2019-03-18T05:17:45.129Z,59.70
2019-03-18T05:20:13.416Z,62.91
2019-03-18T05:22:41.676Z,61.00
2019-03-18T05:25:10.655Z,60.29
2019-03-18T05:27:38.882Z,60.61
2019-03-18T05:30:09.772Z,61.07
2019-03-18T05:32:38.030Z,64.22
2019-03-18T05:35:06.778Z,62.11
2019-03-18T05:37:35.037Z,61.72
2019-03-18T05:40:04.944Z,61.08
2019-03-18T05:42:33.208Z,62.96
2019-03-18T05:45:01.494Z,62.62
2019-03-18T05:47:38.495Z,62.22
2019-03-18T05:49:59.748Z,62.61
2019-03-18T05:52:28.012Z,62.77
2019-03-18T05:54:56.272Z,60.00
2019-03-18T05:57:26.090Z,61.60
2019-03-18T05:59:54.481Z,61.33
2019-03-18T06:02:22.763Z,61.52
2019-03-18T06:04:51.014Z,61.80
2019-03-18T06:07:19.272Z,61.77
2019-03-18T06:09:47.554Z,61.14
2019-03-18T06:12:15.827Z,61.20
2019-03-18T06:14:44.084Z,58.99
2019-03-18T06:17:12.336Z,61.80
2019-03-18T06:19:40.598Z,60.56
2019-03-18T06:22:08.862Z,62.17
2019-03-18T06:24:37.132Z,61.63
2019-03-18T06:27:05.394Z,62.88
2019-03-18T06:29:33.688Z,62.78
2019-03-18T06:32:01.951Z,63.42
2019-03-18T06:34:30.201Z,62.53
2019-03-18T06:36:58.476Z,62.74
2019-03-18T06:39:26.711Z,64.96
2019-03-18T06:41:55.061Z,61.55
2019-03-18T06:44:23.404Z,64.28
2019-03-18T06:46:51.653Z,64.18
2019-03-18T06:49:19.920Z,62.63
2019-03-18T06:51:48.174Z,61.59
2019-03-18T06:54:16.538Z,61.62
2019-03-18T06:56:44.829Z,62.92
2019-03-18T06:59:13.122Z,60.60
2019-03-18T07:01:41.384Z,59.63
2019-03-18T07:04:09.645Z,61.05
2019-03-18T07:06:37.909Z,62.50
2019-03-18T07:09:06.863Z,61.63
2019-03-18T07:11:35.145Z,59.98
2019-03-18T07:14:03.487Z,59.85
2019-03-18T07:16:31.744Z,59.66
2019-03-18T07:19:00.008Z,61.51
2019-03-18T07:21:28.294Z,61.54
2019-03-18T07:23:56.581Z,61.08
2019-03-18T07:26:24.831Z,60.13
2019-03-18T07:28:53.087Z,63.79
2019-03-18T07:31:21.345Z,62.67
2019-03-18T07:33:49.600Z,61.67
2019-03-18T07:36:17.865Z,62.22
2019-03-18T07:38:46.115Z,61.20
2019-03-18T07:41:14.430Z,63.18
2019-03-18T07:43:42.653Z,62.79
2019-03-18T07:46:10.946Z,62.72
2019-03-18T07:48:39.196Z,61.53
2019-03-18T07:51:07.451Z,61.79
2019-03-18T07:53:35.717Z,58.11
2019-03-18T07:56:04.907Z,58.33
2019-03-18T07:58:33.172Z,61.62
2019-03-18T08:01:01.536Z,62.62
2019-03-18T08:03:29.977Z,61.24
2019-03-18T08:05:58.271Z,60.06
2019-03-18T08:08:26.640Z,60.68
2019-03-18T08:10:54.941Z,60.60
2019-03-18T08:13:23.185Z,59.77
2019-03-18T08:15:51.446Z,59.98
2019-03-18T08:18:19.712Z,58.76
2019-03-18T08:20:47.980Z,58.30
2019-03-18T08:23:16.248Z,59.28
2019-03-18T08:25:44.589Z,57.94
2019-03-18T08:28:12.793Z,57.30
2019-03-18T08:30:41.061Z,59.25
2019-03-18T08:33:09.322Z,57.60
2019-03-18T08:35:37.575Z,58.51
2019-03-18T08:38:05.855Z,58.73
2019-03-18T08:40:34.132Z,58.13
2019-03-18T08:43:02.418Z,57.53
2019-03-18T08:45:30.718Z,58.43
2019-03-18T08:47:58.997Z,54.99
2019-03-18T08:50:27.281Z,55.11
2019-03-18T08:52:55.541Z,56.39
2019-03-18T08:55:23.904Z,56.86
2019-03-18T08:57:52.151Z,55.33
2019-03-18T09:00:20.421Z,58.52
2019-03-18T09:02:48.699Z,58.16
2019-03-18T09:05:16.976Z,58.03
2019-03-18T09:07:45.231Z,57.88
2019-03-18T09:10:15.507Z,56.98
2019-03-18T09:12:43.788Z,57.98
2019-03-18T09:15:12.673Z,58.78
2019-03-18T09:17:40.977Z,57.26
2019-03-18T09:20:16.942Z,58.49
2019-03-18T09:22:45.318Z,56.75
2019-03-18T09:25:13.633Z,58.61
2019-03-18T09:27:41.952Z,58.49
2019-03-18T09:30:17.879Z,58.59
2019-03-18T09:32:46.200Z,59.77
2019-03-18T09:35:14.481Z,59.34
2019-03-18T09:37:42.746Z,58.66
2019-03-18T09:40:13.301Z,57.28
2019-03-18T09:42:41.646Z,58.24
2019-03-18T09:45:15.891Z,58.30
2019-03-18T09:47:44.177Z,55.71
2019-03-18T09:50:13.280Z,56.83
2019-03-18T09:52:41.537Z,56.68
2019-03-18T09:55:10.084Z,56.16
2019-03-18T09:57:38.356Z,55.59
2019-03-18T10:00:12.239Z,56.54
2019-03-18T10:02:40.144Z,56.78
2019-03-18T10:05:08.779Z,58.17
2019-03-18T10:07:37.038Z,57.73
2019-03-18T10:10:08.245Z,58.52
2019-03-18T10:12:36.586Z,59.00
2019-03-18T10:15:08.013Z,58.54
2019-03-18T10:17:36.277Z,58.74
2019-03-18T10:20:06.721Z,59.72
2019-03-18T10:22:36.140Z,59.77
2019-03-18T10:25:06.273Z,57.33
2019-03-18T10:27:37.411Z,57.36
2019-03-18T10:30:07.158Z,55.54
2019-03-18T10:32:35.434Z,56.19
2019-03-18T10:35:05.198Z,54.60
2019-03-18T10:37:33.487Z,55.67
2019-03-18T10:40:01.947Z,52.34
2019-03-18T10:42:30.394Z,52.79
2019-03-18T10:44:58.670Z,52.06
2019-03-18T10:47:26.984Z,50.21
2019-03-18T10:49:55.269Z,51.62
2019-03-18T10:52:23.519Z,53.58
2019-03-18T10:54:51.792Z,55.23
2019-03-18T10:57:20.056Z,54.17
2019-03-18T10:59:48.309Z,54.68
2019-03-18T11:02:16.574Z,56.15
2019-03-18T11:04:44.837Z,60.07
2019-03-18T11:07:13.112Z,62.41
2019-03-18T11:09:41.363Z,64.86
2019-03-18T11:12:09.631Z,67.25
2019-03-18T11:14:37.911Z,62.85
2019-03-18T11:17:06.247Z,60.82
2019-03-18T11:19:34.540Z,57.67
2019-03-18T11:22:02.836Z,58.74
2019-03-18T11:24:31.202Z,56.83
2019-03-18T11:26:59.479Z,55.87
2019-03-18T11:29:27.735Z,56.94
2019-03-18T11:31:56.018Z,56.84
2019-03-18T11:34:24.268Z,54.02
2019-03-18T11:36:52.556Z,51.82
2019-03-18T11:39:20.808Z,55.52
2019-03-18T11:41:49.101Z,53.29
2019-03-18T11:44:17.381Z,52.20
2019-03-18T11:46:45.677Z,51.07
2019-03-18T11:49:13.955Z,50.85
2019-03-18T11:51:42.220Z,51.69
2019-03-18T11:54:10.500Z,49.93
2019-03-18T11:56:38.769Z,50.15
2019-03-18T11:59:07.095Z,49.05
2019-03-18T12:01:35.367Z,47.87
2019-03-18T12:04:03.725Z,48.38
2019-03-18T12:06:31.988Z,48.79
2019-03-18T12:09:00.300Z,47.12
2019-03-18T12:11:28.577Z,44.74
2019-03-18T12:13:56.834Z,45.56
2019-03-18T12:16:25.096Z,43.73
2019-03-18T12:18:53.372Z,42.67
2019-03-18T12:21:21.631Z,42.50
2019-03-18T12:23:49.905Z,43.70
2019-03-18T12:26:18.188Z,41.80
2019-03-18T12:28:46.505Z,42.56
2019-03-18T12:31:14.761Z,40.68
2019-03-18T12:33:43.058Z,40.75
2019-03-18T12:36:11.335Z,40.38
2019-03-18T12:38:39.635Z,39.53
2019-03-18T12:41:07.914Z,37.61
2019-03-18T12:43:36.213Z,37.77
2019-03-18T12:46:04.757Z,37.09
2019-03-18T12:48:33.008Z,38.00
2019-03-18T12:51:01.275Z,37.36
2019-03-18T12:53:29.556Z,38.15
2019-03-18T12:55:57.833Z,37.22
2019-03-18T12:58:26.125Z,38.82
2019-03-18T13:00:54.370Z,35.99
2019-03-18T13:03:22.646Z,35.07
2019-03-18T13:05:50.994Z,37.21
2019-03-18T13:08:20.961Z,36.82
2019-03-18T13:10:49.477Z,35.45
2019-03-18T13:13:17.746Z,36.65
2019-03-18T13:15:46.035Z,35.51
2019-03-18T13:18:14.316Z,36.28
2019-03-18T13:20:42.542Z,36.18
2019-03-18T13:23:10.845Z,36.06
2019-03-18T13:25:39.096Z,35.07
2019-03-18T13:28:07.356Z,35.42
2019-03-18T13:30:35.761Z,35.99
2019-03-18T13:33:04.026Z,34.08
2019-03-18T13:35:32.300Z,35.51
2019-03-18T13:38:00.581Z,35.27
2019-03-18T13:40:28.923Z,34.48
2019-03-18T13:42:57.246Z,32.95
2019-03-18T13:45:25.514Z,34.69
2019-03-18T13:47:55.412Z,32.71
2019-03-18T13:50:23.790Z,33.41
2019-03-18T13:52:52.087Z,34.40
2019-03-18T13:55:20.413Z,31.37
2019-03-18T13:57:48.728Z,31.40
2019-03-18T14:00:18.230Z,31.08
2019-03-18T14:02:46.570Z,29.36
2019-03-18T14:05:14.921Z,30.34
2019-03-18T14:07:43.248Z,30.02
2019-03-18T14:10:16.450Z,30.70
2019-03-18T14:12:44.866Z,30.06
2019-03-18T14:15:18.591Z,31.07
2019-03-18T14:17:46.924Z,33.81
2019-03-18T14:20:16.937Z,34.46
2019-03-18T14:22:45.210Z,33.18
2019-03-18T14:25:13.851Z,30.35
2019-03-18T14:27:42.114Z,30.00
2019-03-18T14:30:18.439Z,28.79
2019-03-18T14:32:46.685Z,31.50
2019-03-18T14:35:15.057Z,32.04
2019-03-18T14:37:43.400Z,29.64
2019-03-18T14:40:16.652Z,29.82
2019-03-18T14:42:44.900Z,29.09
2019-03-18T14:45:17.898Z,27.10
2019-03-18T14:47:48.451Z,28.03
2019-03-18T14:50:17.976Z,26.73
2019-03-18T14:52:46.248Z,27.62
2019-03-18T14:55:15.692Z,28.52
2019-03-18T14:57:43.989Z,27.57
2019-03-18T15:00:17.913Z,27.89
2019-03-18T15:02:46.256Z,31.06
2019-03-18T15:05:15.663Z,30.79
2019-03-18T15:07:43.957Z,28.64
2019-03-18T15:10:17.125Z,29.30
2019-03-18T15:12:45.389Z,32.11
2019-03-18T15:15:15.517Z,33.69
2019-03-18T15:17:43.770Z,33.81
2019-03-18T15:20:13.890Z,34.09
2019-03-18T15:22:42.160Z,34.23
2019-03-18T15:25:16.264Z,33.50
2019-03-18T15:27:44.616Z,30.34
2019-03-18T15:30:15.465Z,28.69
2019-03-18T15:32:43.745Z,28.81
2019-03-18T15:35:12.740Z,27.22
2019-03-18T15:37:40.991Z,26.52
2019-03-18T15:40:12.378Z,27.37
2019-03-18T15:42:46.674Z,25.83
2019-03-18T15:45:20.003Z,24.16
2019-03-18T15:47:48.263Z,24.22
2019-03-18T15:50:17.989Z,24.40
2019-03-18T15:52:50.424Z,25.77
2019-03-18T15:55:18.952Z,24.55
2019-03-18T15:57:47.290Z,24.89
2019-03-18T16:00:21.658Z,25.31
2019-03-18T16:02:49.932Z,26.28
2019-03-18T16:05:18.238Z,27.84
2019-03-18T16:07:46.467Z,30.54
2019-03-18T16:10:19.032Z,33.10
2019-03-18T16:12:47.322Z,33.47
2019-03-18T16:15:16.506Z,34.01
2019-03-18T16:17:44.845Z,34.52
2019-03-18T16:20:15.627Z,34.85
2019-03-18T16:22:43.918Z,35.57
2019-03-18T16:25:12.246Z,38.76
2019-03-18T16:27:40.519Z,43.83
2019-03-18T16:30:14.173Z,41.21
2019-03-18T16:32:42.510Z,42.95
2019-03-18T16:35:15.733Z,35.49
2019-03-18T16:37:42.633Z,31.63
2019-03-18T16:40:20.056Z,30.59
2019-03-18T16:42:48.407Z,33.73
2019-03-18T16:45:17.708Z,27.65
2019-03-18T16:47:45.980Z,26.37
2019-03-18T16:50:25.661Z,27.37
2019-03-18T16:52:53.913Z,28.77
2019-03-18T16:55:22.165Z,29.22
2019-03-18T16:57:50.435Z,29.30
2019-03-18T17:00:20.539Z,28.27
2019-03-18T17:02:48.815Z,32.12
2019-03-18T17:05:17.111Z,29.80
2019-03-18T17:07:45.395Z,30.69
2019-03-18T17:10:15.538Z,32.90
2019-03-18T17:12:43.874Z,33.35
2019-03-18T17:15:16.204Z,34.25
2019-03-18T17:17:44.494Z,33.92
2019-03-18T17:20:14.114Z,33.60
2019-03-18T17:22:48.880Z,33.59
2019-03-18T17:25:17.952Z,33.58
2019-03-18T17:27:46.229Z,33.66
2019-03-18T17:30:19.706Z,31.65
2019-03-18T17:32:48.855Z,32.61
2019-03-18T17:35:17.157Z,32.81
2019-03-18T17:37:45.970Z,32.55
2019-03-18T17:40:18.887Z,30.63
2019-03-18T17:42:47.197Z,30.11
2019-03-18T17:45:18.735Z,31.21
2019-03-18T17:47:47.096Z,36.02
2019-03-18T17:50:21.631Z,34.55
2019-03-18T17:53:01.547Z,37.80
2019-03-18T17:55:19.948Z,36.39
2019-03-18T17:57:48.306Z,36.69
2019-03-18T18:00:24.863Z,36.46
2019-03-18T18:02:53.268Z,35.90
2019-03-18T18:05:21.582Z,35.04
2019-03-18T18:07:49.842Z,35.31
2019-03-18T18:10:18.165Z,36.95
2019-03-18T18:12:46.437Z,37.38
2019-03-18T18:15:14.836Z,38.21
2019-03-18T18:17:43.136Z,36.62
2019-03-18T18:20:15.544Z,36.69
2019-03-18T18:22:43.805Z,36.90
2019-03-18T18:25:14.021Z,41.90
2019-03-18T18:27:42.259Z,42.90
2019-03-18T18:30:17.580Z,45.10
2019-03-18T18:32:45.837Z,44.02
2019-03-18T18:35:14.211Z,44.26
2019-03-18T18:37:42.463Z,43.43
2019-03-18T18:40:13.869Z,42.59
2019-03-18T18:42:42.135Z,44.86
2019-03-18T18:45:12.064Z,43.10
2019-03-18T18:47:40.327Z,47.00
2019-03-18T18:50:12.944Z,43.18
2019-03-18T18:52:41.273Z,45.01
2019-03-18T18:55:11.383Z,46.53
2019-03-18T18:57:39.645Z,45.38
2019-03-18T19:00:24.573Z,44.95
2019-03-18T19:02:52.884Z,45.87
2019-03-18T19:05:21.241Z,44.59
2019-03-18T19:07:49.522Z,44.44
2019-03-18T19:10:21.546Z,47.21
2019-03-18T19:12:49.810Z,44.46
2019-03-18T19:15:31.634Z,46.46
2019-03-18T19:17:59.915Z,44.12
2019-03-18T19:20:28.190Z,45.88
2019-03-18T19:22:56.507Z,47.55
2019-03-18T19:25:24.763Z,47.02
2019-03-18T19:27:53.187Z,44.95
2019-03-18T19:30:23.184Z,46.87
2019-03-18T19:32:51.530Z,46.72
2019-03-18T19:35:19.881Z,43.53
2019-03-18T19:37:48.154Z,45.20
2019-03-18T19:40:20.493Z,45.87
2019-03-18T19:42:48.800Z,45.81
2019-03-18T19:45:17.254Z,46.74
2019-03-18T19:47:45.762Z,48.12
2019-03-18T19:50:16.937Z,46.48
2019-03-18T19:52:45.211Z,40.98
2019-03-18T19:55:14.271Z,42.29
2019-03-18T19:57:42.626Z,40.91
2019-03-18T20:00:28.068Z,40.44
2019-03-18T20:02:56.407Z,40.37
2019-03-18T20:05:24.893Z,44.23
2019-03-18T20:07:53.199Z,44.78
2019-03-18T20:10:22.157Z,42.94
2019-03-18T20:12:50.462Z,41.10
2019-03-18T20:15:19.592Z,41.61
2019-03-18T20:17:47.916Z,43.26
2019-03-18T20:20:20.642Z,42.51
2019-03-18T20:22:48.910Z,40.51
2019-03-18T20:25:17.282Z,41.19
2019-03-18T20:27:45.631Z,40.25
2019-03-18T20:30:21.753Z,41.89
2019-03-18T20:32:50.077Z,39.67
2019-03-18T20:35:28.872Z,39.31
2019-03-18T20:37:57.125Z,41.69
2019-03-18T20:40:25.484Z,39.91
2019-03-18T20:42:53.740Z,39.71
2019-03-18T20:45:26.061Z,41.11
2019-03-18T20:47:54.334Z,42.14
2019-03-18T20:50:23.579Z,42.44
2019-03-18T20:52:51.917Z,41.35
2019-03-18T20:55:20.330Z,40.47
2019-03-18T20:57:48.803Z,43.45
2019-03-18T21:00:23.498Z,43.59
2019-03-18T21:02:51.937Z,43.57
2019-03-18T21:05:20.900Z,42.07
2019-03-18T21:07:49.270Z,41.39
2019-03-18T21:10:19.680Z,41.15
2019-03-18T21:12:48.003Z,41.00
2019-03-18T21:15:16.995Z,40.80
2019-03-18T21:17:45.357Z,39.08
2019-03-18T21:20:24.950Z,39.95
2019-03-18T21:22:53.216Z,41.54
2019-03-18T21:25:21.492Z,40.21
2019-03-18T21:27:49.757Z,39.65
2019-03-18T21:30:24.234Z,40.05
2019-03-18T21:32:52.559Z,41.53
2019-03-18T21:35:20.839Z,37.87
2019-03-18T21:37:49.084Z,37.69
2019-03-18T21:40:20.879Z,40.07
2019-03-18T21:42:49.231Z,38.78
2019-03-18T21:45:24.258Z,38.83
2019-03-18T21:47:52.915Z,38.06
2019-03-18T21:50:21.213Z,37.05
2019-03-18T21:52:49.613Z,38.09
2019-03-18T21:55:18.036Z,37.27
2019-03-18T21:57:46.381Z,37.39
2019-03-18T22:00:17.817Z,38.11
2019-03-18T22:02:46.177Z,38.16
2019-03-18T22:05:14.828Z,37.73
2019-03-18T22:07:43.098Z,37.65
2019-03-18T22:10:13.772Z,38.51
2019-03-18T22:12:42.051Z,38.35
2019-03-18T22:15:12.218Z,38.67
2019-03-18T22:17:40.496Z,38.30
2019-03-18T22:20:11.709Z,36.40
2019-03-18T22:22:39.976Z,37.73
2019-03-18T22:25:10.603Z,36.86
2019-03-18T22:27:38.893Z,37.61
2019-03-18T22:30:09.868Z,38.47
2019-03-18T22:32:38.206Z,40.21
2019-03-18T22:35:07.858Z,40.11
2019-03-18T22:37:36.536Z,39.30
2019-03-18T22:40:12.898Z,39.21
2019-03-18T22:42:41.263Z,39.25
2019-03-18T22:45:16.767Z,38.31
2019-03-18T22:47:45.132Z,40.20
2019-03-18T22:50:14.133Z,40.50
2019-03-18T22:52:42.489Z,40.04
2019-03-18T22:55:11.695Z,39.50
2019-03-18T22:57:40.132Z,41.69
2019-03-18T23:00:22.609Z,40.57
2019-03-18T23:02:50.945Z,41.13
2019-03-18T23:05:19.215Z,39.18
2019-03-18T23:07:47.471Z,41.55
2019-03-18T23:10:15.775Z,44.32
2019-03-18T23:12:44.028Z,45.30
2019-03-18T23:15:12.284Z,45.23
2019-03-18T23:17:40.614Z,45.23
2019-03-18T23:20:09.257Z,40.91
2019-03-18T23:22:37.599Z,41.39
2019-03-18T23:25:08.071Z,39.86
2019-03-18T23:27:36.571Z,42.58
2019-03-18T23:30:08.035Z,45.29
2019-03-18T23:32:36.347Z,40.61
2019-03-18T23:35:06.068Z,42.01
2019-03-18T23:37:34.310Z,45.37
2019-03-18T23:40:02.639Z,47.49
2019-03-18T23:42:30.971Z,47.65
2019-03-18T23:44:59.246Z,49.35
2019-03-18T23:47:27.539Z,47.74
2019-03-18T23:49:55.821Z,46.70
2019-03-18T23:52:24.105Z,42.31
2019-03-18T23:54:52.382Z,43.44
2019-03-18T23:57:20.918Z,41.73
2019-03-18T23:59:49.260Z,42.79
